Time;durP1;ratioP1;P1;durP2;ratioP2;P2;SDS_P1;SDS_P2;PMS_P1;PMS_P2;Temp;Humidity;BMP_temperature;BMP_pressure;BME280_temperature;BME280_humidity;BME280_pressure;Samples;Min_cycle;Max_cycle;Signal;HPM_P1;HPM_P2
2023/01/16 00:00:24;;;;;;;63.27;27.27;;;;;;;;;;10401380;28;20614;-75
2023/01/16 00:05:24;;;;;;;56.25;27.42;;;;;;;;;;10410302;28;20025;-72
2023/01/16 00:10:24;;;;;;;58.25;26.10;;;;;;;;;;10428300;28;20049;-76
2023/01/16 00:15:25;;;;;;;60.87;26.73;;;;;;;;;;10409388;28;20029;-76
2023/01/16 00:20:25;;;;;;;66.95;28.67;;;;;;;;;;10427856;28;20120;-74
2023/01/16 00:25:25;;;;;;;65.40;27.80;;;;;;;;;;10427518;28;20045;-75
2023/01/16 00:30:25;;;;;;;68.93;28.00;;;;;;;;;;10427541;28;20025;-73
2023/01/16 00:35:27;;;;;;;69.05;26.80;;;;;;;;;;10427449;28;20024;-74
2023/01/16 00:40:28;;;;;;;64.30;25.95;;;;;;;;;;10427008;28;20019;-75
2023/01/16 00:45:29;;;;;;;67.20;29.33;;;;;;;;;;10422878;28;20025;-76
2023/01/16 00:50:29;;;;;;;65.03;27.75;;;;;;;;;;10422022;28;20021;-75
2023/01/16 00:55:29;;;;;;;63.75;27.88;;;;;;;;;;10426554;28;20021;-76
2023/01/16 01:00:30;;;;;;;53.35;24.58;;;;;;;;;;10425622;28;20028;-76
2023/01/16 01:05:30;;;;;;;62.10;26.83;;;;;;;;;;10426516;28;20320;-74
2023/01/16 01:10:35;;;;;;;64.75;27.70;;;;;;;;;;10425714;28;20028;-75
2023/01/16 01:15:35;;;;;;;64.47;26.80;;;;;;;;;;10426164;28;20098;-78
2023/01/16 01:20:35;;;;;;;58.30;25.20;;;;;;;;;;10446555;28;20094;-75
2023/01/16 01:25:37;;;;;;;75.55;26.63;;;;;;;;;;10440054;28;20049;-75
2023/01/16 01:30:38;;;;;;;65.85;26.08;;;;;;;;;;10431820;28;20032;-73
2023/01/16 01:35:38;;;;;;;63.92;25.92;;;;;;;;;;10426071;28;20020;-70
2023/01/16 01:40:39;;;;;;;54.97;23.15;;;;;;;;;;10435482;28;20490;-73
2023/01/16 01:45:40;;;;;;;64.15;25.40;;;;;;;;;;10442809;28;20159;-79
2023/01/16 01:50:43;;;;;;;53.75;24.45;;;;;;;;;;10442873;28;20104;-71
2023/01/16 01:55:45;;;;;;;52.33;21.50;;;;;;;;;;10424344;28;20067;-77
2023/01/16 02:00:47;;;;;;;53.42;21.67;;;;;;;;;;10424795;28;20052;-78
2023/01/16 02:05:49;;;;;;;46.95;21.25;;;;;;;;;;10442326;28;20079;-75
2023/01/16 02:11:25;;;;;;;43.65;19.33;;;;;;;;;;10424498;28;20466;-73
2023/01/16 02:22:13;;;;;;;41.05;19.50;;;;;;;;;;10419227;28;20053;-76
2023/01/16 02:27:14;;;;;;;46.53;21.45;;;;;;;;;;10425943;28;20490;-74
2023/01/16 02:32:14;;;;;;;53.78;21.08;;;;;;;;;;10426513;28;20071;-75
2023/01/16 02:37:22;;;;;;;51.95;20.88;;;;;;;;;;10440462;28;20064;-71
2023/01/16 02:42:35;;;;;;;56.30;21.50;;;;;;;;;;10423215;28;20025;-76
2023/01/16 02:47:41;;;;;;;47.38;21.23;;;;;;;;;;10420403;28;20107;-72
2023/01/16 02:52:51;;;;;;;47.38;20.63;;;;;;;;;;10405503;28;20041;-75
2023/01/16 02:57:55;;;;;;;47.75;21.17;;;;;;;;;;10417483;28;20554;-73
2023/01/16 03:02:56;;;;;;;55.03;22.63;;;;;;;;;;10422496;28;20013;-77
2023/01/16 03:08:14;;;;;;;54.97;27.38;;;;;;;;;;10422134;28;20024;-73
2023/01/16 03:13:14;;;;;;;;;;;;;;;;;;10441794;28;20069;-71
2023/01/16 03:18:27;;;;;;;58.97;24.65;;;;;;;;;;10464716;28;19908;-73
2023/01/16 03:23:32;;;;;;;56.47;22.83;;;;;;;;;;10438643;28;20621;-75
2023/01/16 03:28:41;;;;;;;58.20;23.75;;;;;;;;;;10387799;28;20033;-72
2023/01/16 03:33:43;;;;;;;44.00;21.48;;;;;;;;;;10421775;28;20021;-74
2023/01/16 03:38:47;;;;;;;49.33;20.80;;;;;;;;;;10422462;28;20083;-75
2023/01/16 03:43:50;;;;;;;50.38;21.63;;;;;;;;;;10432208;28;20489;-72
2023/01/16 03:48:58;;;;;;;63.50;24.02;;;;;;;;;;10429739;28;20013;-73
2023/01/16 03:53:59;;;;;;;49.03;21.58;;;;;;;;;;10428825;28;20507;-76
2023/01/16 03:59:00;;;;;;;53.88;22.15;;;;;;;;;;10429286;28;20021;-72
2023/01/16 04:04:00;;;;;;;48.20;22.13;;;;;;;;;;10447802;28;20021;-76
2023/01/16 04:09:03;;;;;;;55.90;22.15;;;;;;;;;;10458537;28;20021;-74
2023/01/16 04:14:04;;;;;;;47.47;21.45;;;;;;;;;;10458844;28;20033;-72
2023/01/16 04:19:05;;;;;;;54.13;21.88;;;;;;;;;;10428097;28;20021;-75
2023/01/16 04:24:05;;;;;;;50.17;21.30;;;;;;;;;;10422690;28;20423;-75
2023/01/16 04:29:06;;;;;;;47.63;20.80;;;;;;;;;;10426410;28;20021;-72
2023/01/16 04:34:06;;;;;;;51.50;23.98;;;;;;;;;;10444624;28;20036;-75
2023/01/16 04:39:08;;;;;;;50.72;20.42;;;;;;;;;;10423645;28;20025;-77
2023/01/16 04:44:09;;;;;;;58.28;24.17;;;;;;;;;;10422745;28;20471;-73
2023/01/16 04:49:09;;;;;;;72.00;23.73;;;;;;;;;;10425492;28;20025;-75
2023/01/16 04:54:13;;;;;;;98.07;23.10;;;;;;;;;;10440399;28;20074;-75
2023/01/16 04:59:15;;;;;;;65.20;20.27;;;;;;;;;;10425323;28;20773;-77
2023/01/16 05:04:16;;;;;;;61.97;21.73;;;;;;;;;;10428568;28;21431;-72
2023/01/16 05:09:16;;;;;;;61.42;20.05;;;;;;;;;;10465213;28;20048;-74
2023/01/16 05:14:16;;;;;;;61.38;19.77;;;;;;;;;;10456560;28;20089;-73
2023/01/16 05:19:16;;;;;;;82.07;19.65;;;;;;;;;;10425602;28;20039;-71
2023/01/16 05:24:17;;;;;;;89.53;20.92;;;;;;;;;;10434625;28;20057;-76
2023/01/16 05:29:17;;;;;;;58.80;19.42;;;;;;;;;;10423734;28;20025;-75
2023/01/16 05:34:17;;;;;;;76.55;21.13;;;;;;;;;;10420626;28;20453;-74
2023/01/16 05:39:17;;;;;;;58.90;20.30;;;;;;;;;;10441596;28;20428;-77
2023/01/16 05:44:19;;;;;;;59.60;20.20;;;;;;;;;;10441401;28;20032;-74
2023/01/16 05:49:19;;;;;;;64.72;24.23;;;;;;;;;;10441739;28;20658;-72
2023/01/16 05:54:20;;;;;;;69.65;22.40;;;;;;;;;;10425964;28;20016;-77
2023/01/16 05:59:20;;;;;;;61.43;21.03;;;;;;;;;;10443458;28;20033;-79
2023/01/16 06:04:20;;;;;;;48.97;19.98;;;;;;;;;;10430437;28;20025;-78
2023/01/16 06:09:20;;;;;;;56.40;20.23;;;;;;;;;;10408836;28;20017;-78
2023/01/16 06:14:21;;;;;;;54.03;20.95;;;;;;;;;;10424500;28;20479;-74
2023/01/16 06:19:21;;;;;;;56.83;20.48;;;;;;;;;;10407120;28;20447;-74
2023/01/16 06:24:22;;;;;;;62.08;21.65;;;;;;;;;;10414320;28;20061;-78
2023/01/16 06:29:23;;;;;;;60.00;22.75;;;;;;;;;;10437704;28;20049;-72
2023/01/16 06:34:24;;;;;;;62.05;22.08;;;;;;;;;;10431080;28;20158;-72
2023/01/16 06:39:24;;;;;;;70.55;22.88;;;;;;;;;;10423170;28;20025;-73
2023/01/16 06:44:25;;;;;;;69.27;21.67;;;;;;;;;;10419380;28;20025;-74
2023/01/16 06:49:25;;;;;;;74.72;22.67;;;;;;;;;;10423293;28;20029;-73
2023/01/16 06:54:25;;;;;;;60.40;22.20;;;;;;;;;;10457674;23;20044;-79
2023/01/16 06:59:26;;;;;;;80.23;27.07;;;;;;;;;;10452457;28;20101;-72
2023/01/16 07:04:30;;;;;;;60.47;23.37;;;;;;;;;;10474688;28;20282;-77
2023/01/16 07:09:30;;;;;;;65.90;26.08;;;;;;;;;;10484359;28;20770;-77
2023/01/16 07:25:16;;;;;;;68.22;24.25;;;;;;;;;;10482670;28;20490;-73
2023/01/16 07:30:18;;;;;;;64.70;22.42;;;;;;;;;;10439229;28;20028;-77
2023/01/16 07:35:19;;;;;;;70.43;23.67;;;;;;;;;;10424120;28;20053;-75
2023/01/16 07:40:19;;;;;;;61.97;23.93;;;;;;;;;;10434263;28;20115;-75
2023/01/16 07:45:19;;;;;;;75.73;26.37;;;;;;;;;;10432623;28;20124;-74
2023/01/16 07:50:19;;;;;;;73.13;25.17;;;;;;;;;;10412986;28;20112;-75
2023/01/16 07:55:20;;;;;;;70.68;24.42;;;;;;;;;;10422349;28;20048;-71
2023/01/16 08:00:20;;;;;;;65.53;24.92;;;;;;;;;;10422381;28;20542;-75
2023/01/16 08:05:20;;;;;;;81.95;25.13;;;;;;;;;;10432140;28;20116;-72
2023/01/16 08:10:21;;;;;;;67.75;22.73;;;;;;;;;;10436901;28;20037;-79
2023/01/16 08:15:21;;;;;;;71.47;26.83;;;;;;;;;;10435014;28;20112;-73
2023/01/16 08:20:22;;;;;;;65.05;24.98;;;;;;;;;;10415097;28;20116;-73
2023/01/16 08:25:23;;;;;;;60.85;22.67;;;;;;;;;;10420660;28;20029;-71
2023/01/16 08:30:23;;;;;;;60.80;22.40;;;;;;;;;;10416014;28;20456;-74
2023/01/16 08:35:23;;;;;;;63.50;24.83;;;;;;;;;;10403894;28;20037;-71
2023/01/16 08:40:24;;;;;;;94.28;34.53;;;;;;;;;;10447033;28;20267;-81
2023/01/16 08:56:04;;;;;;;85.15;31.85;;;;;;;;;;10446813;28;20076;-73
2023/01/16 09:01:05;;;;;;;87.80;34.03;;;;;;;;;;10414765;28;20116;-74
2023/01/16 09:06:13;;;;;;;77.82;29.65;;;;;;;;;;10443727;28;20478;-72
2023/01/16 09:16:32;;;;;;;80.28;35.47;;;;;;;;;;10439364;28;20047;-73
2023/01/16 09:21:33;;;;;;;82.97;29.70;;;;;;;;;;10445261;28;20840;-74
2023/01/16 09:26:33;;;;;;;86.95;31.98;;;;;;;;;;10427223;28;20025;-73
2023/01/16 09:31:34;;;;;;;79.78;30.00;;;;;;;;;;10421155;28;20029;-76
2023/01/16 09:36:34;;;;;;;78.90;29.83;;;;;;;;;;10422850;28;20039;-72
2023/01/16 09:46:59;;;;;;;71.68;28.35;;;;;;;;;;10444570;28;20060;-75
2023/01/16 10:02:45;;;;;;;93.55;31.40;;;;;;;;;;10445076;28;20025;-71
2023/01/16 10:07:57;;;;;;;72.73;28.67;;;;;;;;;;10441799;28;20025;-74
2023/01/16 10:13:07;;;;;;;78.05;30.00;;;;;;;;;;10388006;28;20288;-77
2023/01/16 10:18:14;;;;;;;67.50;24.67;;;;;;;;;;10414522;28;20021;-75
2023/01/16 10:23:43;;;;;;;67.07;25.30;;;;;;;;;;10403214;28;20033;-74
2023/01/16 10:28:55;;;;;;;54.90;23.60;;;;;;;;;;10414372;28;20027;-77
2023/01/16 10:33:59;;;;;;;57.78;24.25;;;;;;;;;;10424356;28;20710;-78
2023/01/16 10:38:59;;;;;;;67.65;25.02;;;;;;;;;;10399137;28;20209;-78
2023/01/16 10:49:25;;;;;;;58.83;22.95;;;;;;;;;;10430729;28;20032;-77
2023/01/16 10:54:26;;;;;;;58.58;23.88;;;;;;;;;;10430767;28;20137;-76
2023/01/16 10:59:27;;;;;;;62.42;23.70;;;;;;;;;;10422220;28;20535;-72
2023/01/16 11:04:37;;;;;;;58.95;24.40;;;;;;;;;;10440283;28;20061;-72
2023/01/16 11:09:39;;;;;;;58.47;21.08;;;;;;;;;;10410152;28;20024;-74
2023/01/16 11:20:19;;;;;;;59.10;21.10;;;;;;;;;;10454041;28;20052;-72
2023/01/16 11:25:21;;;;;;;55.78;23.38;;;;;;;;;;10440117;28;20108;-71
2023/01/16 11:30:27;;;;;;;50.25;21.85;;;;;;;;;;10407985;28;20061;-71
2023/01/16 11:35:31;;;;;;;53.72;22.17;;;;;;;;;;10433970;28;20521;-71
2023/01/16 11:40:37;;;;;;;56.10;23.35;;;;;;;;;;10435199;28;20033;-73
2023/01/16 11:51:02;;;;;;;55.00;21.45;;;;;;;;;;10440369;28;20100;-71
2023/01/16 11:56:11;;;;;;;44.75;20.17;;;;;;;;;;10422831;28;20148;-76
2023/01/16 12:01:15;;;;;;;38.97;18.15;;;;;;;;;;10441937;28;20021;-73
2023/01/16 12:06:24;;;;;;;50.90;20.10;;;;;;;;;;10429878;28;20028;-73
2023/01/16 12:11:27;;;;;;;50.60;20.55;;;;;;;;;;10432720;28;20478;-72
2023/01/16 12:16:46;;;;;;;49.88;22.15;;;;;;;;;;10405932;28;20036;-79
2023/01/16 12:21:54;;;;;;;43.88;18.45;;;;;;;;;;10423136;28;20017;-72
2023/01/16 12:26:58;;;;;;;44.90;18.75;;;;;;;;;;10429158;28;20032;-71
2023/01/16 12:32:18;;;;;;;38.15;17.50;;;;;;;;;;10428896;28;20028;-73
2023/01/16 12:37:27;;;;;;;41.40;19.58;;;;;;;;;;10429604;28;20059;-72
2023/01/16 12:48:16;;;;;;;42.13;19.30;;;;;;;;;;10446385;28;20033;-71
2023/01/16 12:53:16;;;;;;;40.17;17.85;;;;;;;;;;10445550;28;20043;-73
2023/01/16 12:58:26;;;;;;;42.10;16.98;;;;;;;;;;10413648;28;20061;-79
2023/01/16 13:03:43;;;;;;;34.83;15.90;;;;;;;;;;10387035;28;20152;-80
2023/01/16 13:08:51;;;;;;;28.70;13.15;;;;;;;;;;10403478;28;20403;-73
2023/01/16 13:13:54;;;;;;;30.02;13.45;;;;;;;;;;10394638;28;20478;-72
2023/01/16 13:18:58;;;;;;;37.03;15.00;;;;;;;;;;10423072;28;20144;-78
2023/01/16 13:24:01;;;;;;;37.20;15.90;;;;;;;;;;10445258;28;20021;-75
2023/01/16 13:29:07;;;;;;;38.55;16.23;;;;;;;;;;10427156;28;20029;-71
2023/01/16 13:34:11;;;;;;;37.92;15.65;;;;;;;;;;10426768;28;20132;-74
2023/01/16 13:39:30;;;;;;;33.47;14.02;;;;;;;;;;10412186;28;20013;-75
2023/01/16 13:49:55;;;;;;;38.58;15.13;;;;;;;;;;10432897;28;20017;-74
2023/01/16 13:54:57;;;;;;;34.40;14.48;;;;;;;;;;10430139;28;20044;-71
2023/01/16 13:59:58;;;;;;;33.60;14.68;;;;;;;;;;10426778;28;20048;-73
2023/01/16 14:05:05;;;;;;;30.42;13.45;;;;;;;;;;10445797;28;20045;-72
2023/01/16 14:10:24;;;;;;;30.02;14.38;;;;;;;;;;10427211;28;20028;-73
2023/01/16 14:20:46;;;;;;;36.15;13.18;;;;;;;;;;10444404;28;20394;-72
2023/01/16 14:25:50;;;;;;;34.05;15.57;;;;;;;;;;10423791;28;20021;-74
2023/01/16 14:30:51;;;;;;;33.65;15.88;;;;;;;;;;10442792;28;20415;-74
2023/01/16 14:35:52;;;;;;;24.67;12.50;;;;;;;;;;10413328;28;20028;-73
2023/01/16 14:57:15;;;;;;;29.98;12.68;;;;;;;;;;10440982;28;20057;-72
2023/01/16 15:02:21;;;;;;;38.63;16.38;;;;;;;;;;10423041;28;20021;-77
2023/01/16 15:07:40;;;;;;;34.40;15.57;;;;;;;;;;10423362;28;20423;-75
2023/01/16 15:12:42;;;;;;;34.38;14.00;;;;;;;;;;10440409;28;20045;-78
2023/01/16 15:23:03;;;;;;;33.60;13.38;;;;;;;;;;10429713;28;20025;-71
2023/01/16 15:28:13;;;;;;;36.83;14.00;;;;;;;;;;10414499;28;20434;-77
2023/01/16 15:38:47;;;;;;;34.30;14.93;;;;;;;;;;10410923;28;20028;-74
2023/01/16 15:49:12;;;;;;;47.33;17.17;;;;;;;;;;10448846;28;20013;-73
2023/01/16 15:54:14;;;;;;;57.63;19.05;;;;;;;;;;10448325;28;20095;-75
2023/01/16 15:59:30;;;;;;;51.65;16.70;;;;;;;;;;10437367;28;20036;-74
2023/01/16 16:04:30;;;;;;;45.08;19.67;;;;;;;;;;10421133;28;20021;-73
2023/01/16 16:09:31;;;;;;;36.10;16.40;;;;;;;;;;10400314;28;20108;-73
2023/01/16 16:19:52;;;;;;;35.33;15.43;;;;;;;;;;10448312;28;20475;-73
2023/01/16 16:24:53;;;;;;;36.55;16.13;;;;;;;;;;10428309;28;20017;-73
2023/01/16 16:29:53;;;;;;;49.33;17.65;;;;;;;;;;10447118;28;20469;-72
2023/01/16 16:34:55;;;;;;;37.28;16.83;;;;;;;;;;10417718;28;20182;-71
2023/01/16 16:40:12;;;;;;;39.20;16.52;;;;;;;;;;10428640;28;20020;-72
2023/01/16 16:45:33;;;;;;;38.95;15.70;;;;;;;;;;10401815;28;20429;-73
2023/01/16 16:50:34;;;;;;;49.88;17.90;;;;;;;;;;10422443;28;20104;-75
2023/01/16 16:55:36;;;;;;;45.90;18.15;;;;;;;;;;10435106;28;20054;-73
2023/01/16 17:00:36;;;;;;;44.30;18.58;;;;;;;;;;10410075;28;20022;-74
2023/01/16 17:05:36;;;;;;;38.78;18.73;;;;;;;;;;10427529;28;20457;-73
2023/01/16 17:10:37;;;;;;;46.58;17.17;;;;;;;;;;10416197;28;20034;-78
2023/01/16 17:15:37;;;;;;;38.55;18.08;;;;;;;;;;10399405;28;20490;-73
2023/01/16 17:20:38;;;;;;;42.28;16.58;;;;;;;;;;10432576;22;20060;-75
2023/01/16 17:25:41;;;;;;;36.92;15.25;;;;;;;;;;10451662;28;20538;-76
2023/01/16 17:30:42;;;;;;;31.55;13.18;;;;;;;;;;10466980;28;20028;-72
2023/01/16 17:35:44;;;;;;;30.53;14.50;;;;;;;;;;10487785;28;20024;-76
2023/01/16 17:40:45;;;;;;;26.35;12.77;;;;;;;;;;10461965;28;20842;-76
2023/01/16 17:45:51;;;;;;;43.33;17.70;;;;;;;;;;10459978;28;20078;-75
2023/01/16 17:50:52;;;;;;;36.50;17.48;;;;;;;;;;10461271;28;20396;-71
2023/01/16 17:55:55;;;;;;;42.50;18.10;;;;;;;;;;10456812;28;20035;-73
2023/01/16 18:00:57;;;;;;;58.70;16.65;;;;;;;;;;10448936;28;20466;-73
2023/01/16 18:06:01;;;;;;;38.88;17.13;;;;;;;;;;10482606;28;20028;-75
2023/01/16 18:17:21;;;;;;;43.33;15.55;;;;;;;;;;10483925;28;20171;-79
2023/01/16 18:22:00;;;;;;;42.88;18.90;;;;;;;;;;10483278;28;20132;-72
2023/01/16 18:27:01;;;;;;;;;;;;;;;;;;10461192;28;20103;-72
2023/01/16 18:32:20;;;;;;;47.03;18.45;;;;;;;;;;10459546;28;19912;-75
2023/01/16 18:37:21;;;;;;;45.60;17.33;;;;;;;;;;10458789;28;20060;-74
2023/01/16 19:03:40;;;;;;;55.58;19.02;;;;;;;;;;10474355;28;20028;-72
2023/01/16 19:08:41;;;;;;;47.22;20.98;;;;;;;;;;10456325;28;20028;-72
2023/01/16 19:13:42;;;;;;;46.45;19.13;;;;;;;;;;10438234;28;20050;-74
2023/01/16 19:18:44;;;;;;;54.92;23.25;;;;;;;;;;10462961;28;20035;-74
2023/01/16 19:23:44;;;;;;;47.28;21.40;;;;;;;;;;10460410;28;20055;-73
2023/01/16 19:28:44;;;;;;;58.03;24.57;;;;;;;;;;10478819;28;20040;-73
2023/01/16 19:33:45;;;;;;;54.92;24.95;;;;;;;;;;10463367;28;20066;-76
2023/01/16 19:38:45;;;;;;;65.15;24.10;;;;;;;;;;10456442;28;20051;-79
2023/01/16 19:49:05;;;;;;;61.17;26.98;;;;;;;;;;10479634;28;20542;-77
2023/01/16 19:54:06;;;;;;;57.53;24.58;;;;;;;;;;10457655;28;20033;-72
2023/01/16 19:59:07;;;;;;;66.82;25.48;;;;;;;;;;10464551;28;20082;-76
2023/01/16 20:04:07;;;;;;;61.67;25.90;;;;;;;;;;10438646;23;20068;-69
2023/01/16 20:09:09;;;;;;;61.43;25.00;;;;;;;;;;10432638;28;20032;-74
2023/01/16 20:14:10;;;;;;;73.28;27.40;;;;;;;;;;10449806;28;20125;-74
2023/01/16 20:19:10;;;;;;;68.95;27.98;;;;;;;;;;10421936;28;20898;-73
2023/01/16 20:24:10;;;;;;;70.57;28.15;;;;;;;;;;10413699;28;20159;-77
2023/01/16 20:29:13;;;;;;;56.70;25.47;;;;;;;;;;10433276;28;20020;-75
2023/01/16 20:34:14;;;;;;;67.85;25.83;;;;;;;;;;10431346;28;20247;-76
2023/01/16 20:39:14;;;;;;;57.57;24.93;;;;;;;;;;10432807;28;20024;-76
2023/01/16 20:49:37;;;;;;;48.42;21.30;;;;;;;;;;10432679;28;20024;-72
2023/01/16 20:54:37;;;;;;;52.67;24.07;;;;;;;;;;10439441;28;20037;-75
2023/01/16 20:59:38;;;;;;;46.78;20.45;;;;;;;;;;10430753;28;20064;-76
2023/01/16 21:04:38;;;;;;;67.20;26.60;;;;;;;;;;10445301;28;20037;-72
2023/01/16 21:09:38;;;;;;;63.53;27.63;;;;;;;;;;10448085;28;20491;-75
2023/01/16 21:14:39;;;;;;;61.23;24.47;;;;;;;;;;10430565;28;20037;-74
2023/01/16 21:25:01;;;;;;;61.90;23.88;;;;;;;;;;10414209;28;20029;-75
2023/01/16 21:30:03;;;;;;;52.60;23.60;;;;;;;;;;10436778;28;20025;-75
2023/01/16 21:35:04;;;;;;;50.33;22.05;;;;;;;;;;10442783;28;20036;-79
2023/01/16 21:40:06;;;;;;;51.22;22.35;;;;;;;;;;10424236;28;20450;-75
2023/01/16 21:50:27;;;;;;;48.13;21.45;;;;;;;;;;10425575;28;20032;-72
2023/01/16 21:55:28;;;;;;;45.42;18.75;;;;;;;;;;10436508;28;20033;-76
2023/01/16 22:00:28;;;;;;;47.47;20.73;;;;;;;;;;10420885;28;20109;-76
2023/01/16 22:05:28;;;;;;;55.00;23.08;;;;;;;;;;10430506;28;20074;-75
2023/01/16 22:10:29;;;;;;;44.17;18.27;;;;;;;;;;10442863;28;20029;-74
2023/01/16 22:20:56;;;;;;;30.45;12.60;;;;;;;;;;10426464;28;20033;-73
2023/01/16 22:25:56;;;;;;;38.72;18.65;;;;;;;;;;10417301;28;20025;-73
2023/01/16 22:30:57;;;;;;;44.77;18.93;;;;;;;;;;10429709;28;20391;-75
2023/01/16 22:36:02;;;;;;;50.38;21.45;;;;;;;;;;10422219;28;20766;-73
2023/01/16 22:41:03;;;;;;;46.47;20.95;;;;;;;;;;10421009;28;20028;-76
2023/01/16 22:46:21;;;;;;;31.38;13.82;;;;;;;;;;10417243;28;20128;-76
2023/01/16 22:51:21;;;;;;;41.92;18.52;;;;;;;;;;10438365;28;20045;-72
2023/01/16 22:56:23;;;;;;;32.67;14.50;;;;;;;;;;10446131;28;20419;-74
2023/01/16 23:01:24;;;;;;;32.10;16.42;;;;;;;;;;10456125;28;20052;-74
2023/01/16 23:06:24;;;;;;;38.15;16.52;;;;;;;;;;10427436;28;20040;-71
2023/01/16 23:11:27;;;;;;;34.03;12.50;;;;;;;;;;10432958;28;20021;-76
2023/01/16 23:16:29;;;;;;;26.40;13.02;;;;;;;;;;10438062;28;20024;-72
2023/01/16 23:21:29;;;;;;;32.28;13.63;;;;;;;;;;10453331;28;20510;-74
2023/01/16 23:26:30;;;;;;;29.63;12.60;;;;;;;;;;10438609;28;20025;-71
2023/01/16 23:31:30;;;;;;;22.88;10.23;;;;;;;;;;10438412;28;20029;-72
2023/01/16 23:36:30;;;;;;;12.82;6.60;;;;;;;;;;10418745;28;20025;-70
2023/01/16 23:46:50;;;;;;;15.52;6.82;;;;;;;;;;10431644;28;20772;-75
2023/01/16 23:51:50;;;;;;;19.65;7.13;;;;;;;;;;10433213;28;20040;-77
2023/01/16 23:56:50;;;;;;;19.48;8.73;;;;;;;;;;10447991;28;20029;-74
